Time,TemperatureF,DewpointF,PressureIn,WindDirection,WindDirectionDegrees,WindSpeedMPH,WindSpeedGustMPH,Humidity,HourlyPrecipIn,Conditions,Clouds,dailyrainin,SoftwareType,DateUTC
2013-04-05 00:00:00,43.2,33.4,30.17,NW,308,2.0,10.0,68,0.00,,---,0.00,VWS V14.01,2013-04-05 05:00:00,
2013-04-05 00:03:00,43.1,33.3,30.17,NNW,328,3.0,8.0,68,0.00,,---,0.00,VWS V14.01,2013-04-05 05:03:00,
2013-04-05 00:08:00,42.9,33.1,30.17,NNW,328,4.0,8.0,68,0.00,,---,0.00,VWS V14.01,2013-04-05 05:08:00,
2013-04-05 00:13:00,42.7,32.9,30.17,WNW,288,1.0,8.0,68,0.00,,---,0.00,VWS V14.01,2013-04-05 05:13:00,
2013-04-05 00:18:00,42.4,33.0,30.17,SE,146,0.0,8.0,69,0.00,,---,0.00,VWS V14.01,2013-04-05 05:18:00,
2013-04-05 00:23:00,42.2,32.8,30.18,NNW,335,1.0,8.0,69,0.00,,---,0.00,VWS V14.01,2013-04-05 05:23:00,
2013-04-05 00:28:00,42.0,32.6,30.18,NNW,344,0.0,8.0,69,0.00,,---,0.00,VWS V14.01,2013-04-05 05:28:00,
2013-04-05 00:30:00,42.0,32.9,30.18,NNE,30,2.0,8.0,70,0.00,,---,0.00,VWS V14.01,2013-04-05 05:30:00,
2013-04-05 00:33:00,41.8,32.8,30.18,North,354,1.0,4.0,70,0.00,,---,0.00,VWS V14.01,2013-04-05 05:33:00,
2013-04-05 00:38:00,41.6,32.6,30.18,NNW,335,5.0,7.0,70,0.00,,---,0.00,VWS V14.01,2013-04-05 05:38:00,
2013-04-05 00:43:00,41.3,32.3,30.19,NW,305,0.0,7.0,70,0.00,,---,0.00,VWS V14.01,2013-04-05 05:43:00,
2013-04-05 00:49:00,41.1,32.1,30.19,NNW,335,2.0,7.0,70,0.00,,---,0.00,VWS V14.01,2013-04-05 05:49:00,
2013-04-05 00:54:00,40.9,31.9,30.19,NW,318,0.0,7.0,70,0.00,,---,0.00,VWS V14.01,2013-04-05 05:54:00,
2013-04-05 00:59:00,40.7,32.0,30.19,NNE,20,3.0,7.0,71,0.00,,---,0.00,VWS V14.01,2013-04-05 05:59:00,
2013-04-05 01:00:00,40.7,32.0,30.19,North,358,2.0,7.0,71,0.00,,---,0.00,VWS V14.01,2013-04-05 06:00:00,
2013-04-05 01:04:00,40.4,31.8,30.19,NNW,335,2.0,6.0,71,0.00,,---,0.00,VWS V14.01,2013-04-05 06:04:00,
2013-04-05 01:09:00,40.3,31.7,30.19,North,350,4.0,6.0,71,0.00,,---,0.00,VWS V14.01,2013-04-05 06:09:00,
2013-04-05 01:14:00,40.1,31.5,30.19,North,356,1.0,8.0,71,0.00,,---,0.00,VWS V14.01,2013-04-05 06:14:00,
2013-04-05 01:19:00,39.9,31.6,30.19,NW,308,3.0,8.0,72,0.00,,---,0.00,VWS V14.01,2013-04-05 06:19:00,
2013-04-05 01:24:00,39.8,31.5,30.19,NNW,347,1.0,8.0,72,0.00,,---,0.00,VWS V14.01,2013-04-05 06:24:00,
2013-04-05 01:29:00,39.6,31.3,30.19,NNW,335,5.0,5.0,72,0.00,,---,0.00,VWS V14.01,2013-04-05 06:29:00,
2013-04-05 01:30:00,39.7,31.4,30.19,ENE,65,1.0,8.0,72,0.00,,---,0.00,VWS V14.01,2013-04-05 06:30:00,
2013-04-05 01:35:00,39.6,31.3,30.19,NNW,339,2.0,7.0,72,0.00,,---,0.00,VWS V14.01,2013-04-05 06:35:00,
2013-04-05 01:40:00,39.5,31.2,30.19,NNE,28,2.0,7.0,72,0.00,,---,0.00,VWS V14.01,2013-04-05 06:40:00,
2013-04-05 01:45:00,39.4,31.1,30.20,NE,46,0.0,7.0,72,0.00,,---,0.00,VWS V14.01,2013-04-05 06:45:00,
2013-04-05 01:50:00,39.4,31.5,30.20,West,266,1.0,7.0,73,0.00,,---,0.00,VWS V14.01,2013-04-05 06:50:00,
2013-04-05 01:55:00,39.2,31.3,30.20,NNW,330,4.0,7.0,73,0.00,,---,0.00,VWS V14.01,2013-04-05 06:55:00,
2013-04-05 02:00:00,39.1,31.2,30.20,NNW,332,2.0,4.0,73,0.00,,---,0.00,VWS V14.01,2013-04-05 07:00:00,
2013-04-05 02:05:00,39.0,31.1,30.20,North,9,4.0,8.0,73,0.00,,---,0.00,VWS V14.01,2013-04-05 07:05:00,
2013-04-05 02:10:00,38.9,31.0,30.20,NNE,23,1.0,8.0,73,0.00,,---,0.00,VWS V14.01,2013-04-05 07:10:00,
2013-04-05 02:15:00,38.8,30.9,30.20,WSW,256,1.0,8.0,73,0.00,,---,0.00,VWS V14.01,2013-04-05 07:15:00,
2013-04-05 02:20:00,38.7,31.1,30.20,NW,318,0.0,8.0,74,0.00,,---,0.00,VWS V14.01,2013-04-05 07:20:00,
2013-04-05 02:25:00,38.6,31.0,30.20,North,360,2.0,8.0,74,0.00,,---,0.00,VWS V14.01,2013-04-05 07:25:00,
2013-04-05 02:30:00,38.4,30.9,30.20,WNW,283,0.0,4.0,74,0.00,,---,0.00,VWS V14.01,2013-04-05 07:30:00,
2013-04-05 02:36:00,38.3,30.8,30.20,North,357,5.0,9.0,74,0.00,,---,0.00,VWS V14.01,2013-04-05 07:36:00,
2013-04-05 02:41:00,38.2,30.7,30.20,NNW,339,2.0,9.0,74,0.00,,---,0.00,VWS V14.01,2013-04-05 07:41:00,
2013-04-05 02:46:00,38.0,30.5,30.20,NW,315,5.0,9.0,74,0.00,,---,0.00,VWS V14.01,2013-04-05 07:46:00,
2013-04-05 02:51:00,38.0,30.8,30.21,NNW,335,0.0,9.0,75,0.00,,---,0.00,VWS V14.01,2013-04-05 07:51:00,
2013-04-05 02:57:00,37.9,30.7,30.21,WNW,293,1.0,9.0,75,0.00,,---,0.00,VWS V14.01,2013-04-05 07:57:00,
2013-04-05 03:00:00,37.9,30.7,30.21,WNW,302,1.0,9.0,75,0.00,,---,0.00,VWS V14.01,2013-04-05 08:00:00,
2013-04-05 03:02:00,37.8,30.6,30.21,NW,321,0.0,2.0,75,0.00,,---,0.00,VWS V14.01,2013-04-05 08:02:00,
2013-04-05 03:07:00,37.7,30.5,30.21,NW,310,1.0,2.0,75,0.00,,---,0.00,VWS V14.01,2013-04-05 08:07:00,
2013-04-05 03:12:00,37.6,30.4,30.20,NE,47,4.0,4.0,75,0.00,,---,0.00,VWS V14.01,2013-04-05 08:12:00,
2013-04-05 03:17:00,37.5,30.3,30.21,North,350,1.0,5.0,75,0.00,,---,0.00,VWS V14.01,2013-04-05 08:17:00,
2013-04-05 03:22:00,37.4,30.2,30.21,NNE,19,1.0,5.0,75,0.00,,---,0.00,VWS V14.01,2013-04-05 08:22:00,
2013-04-05 03:27:00,37.3,30.1,30.20,NNW,334,0.0,5.0,75,0.00,,---,0.00,VWS V14.01,2013-04-05 08:27:00,
2013-04-05 03:30:00,37.3,30.4,30.21,NE,34,1.0,5.0,76,0.00,,---,0.00,VWS V14.01,2013-04-05 08:30:00,
2013-04-05 03:32:00,37.3,30.4,30.21,NE,56,1.0,5.0,76,0.00,,---,0.00,VWS V14.01,2013-04-05 08:32:00,
2013-04-05 03:37:00,37.1,30.2,30.21,NW,305,0.0,5.0,76,0.00,,---,0.00,VWS V14.01,2013-04-05 08:37:00,
2013-04-05 03:42:00,37.0,30.1,30.21,North,355,1.0,7.0,76,0.00,,---,0.00,VWS V14.01,2013-04-05 08:42:00,
2013-04-05 03:47:00,36.8,30.0,30.21,NW,322,2.0,7.0,76,0.00,,---,0.00,VWS V14.01,2013-04-05 08:47:00,
2013-04-05 03:52:00,36.6,30.1,30.21,NNW,342,3.0,7.0,77,0.00,,---,0.00,VWS V14.01,2013-04-05 08:52:00,
2013-04-05 03:57:00,36.4,29.9,30.21,NNW,334,1.0,7.0,77,0.00,,---,0.00,VWS V14.01,2013-04-05 08:57:00,
2013-04-05 04:00:00,36.4,29.9,30.21,NNW,338,1.0,7.0,77,0.00,,---,0.00,VWS V14.01,2013-04-05 09:00:00,
2013-04-05 04:02:00,36.3,29.8,30.21,NW,321,0.0,4.0,77,0.00,,---,0.00,VWS V14.01,2013-04-05 09:02:00,
2013-04-05 04:07:00,36.0,29.8,30.21,NW,305,0.0,4.0,78,0.00,,---,0.00,VWS V14.01,2013-04-05 09:07:00,
2013-04-05 04:12:00,35.7,29.5,30.22,NW,321,0.0,5.0,78,0.00,,---,0.00,VWS V14.01,2013-04-05 09:12:00,
2013-04-05 04:17:00,35.5,29.6,30.22,North,354,0.0,5.0,79,0.00,,---,0.00,VWS V14.01,2013-04-05 09:17:00,
2013-04-05 04:23:00,35.3,29.5,30.21,North,358,1.0,5.0,79,0.00,,---,0.00,VWS V14.01,2013-04-05 09:23:00,
2013-04-05 04:28:00,35.2,29.7,30.22,NNE,27,1.0,5.0,80,0.00,,---,0.00,VWS V14.01,2013-04-05 09:28:00,
2013-04-05 04:30:00,35.2,29.7,30.22,East,88,0.0,5.0,80,0.00,,---,0.00,VWS V14.01,2013-04-05 09:30:00,
2013-04-05 04:33:00,35.0,29.5,30.22,NW,312,2.0,3.0,80,0.00,,---,0.00,VWS V14.01,2013-04-05 09:33:00,
2013-04-05 04:38:00,34.9,29.4,30.22,NNE,16,4.0,4.0,80,0.00,,---,0.00,VWS V14.01,2013-04-05 09:38:00,
2013-04-05 04:43:00,34.7,29.2,30.23,NW,311,2.0,4.0,80,0.00,,---,0.00,VWS V14.01,2013-04-05 09:43:00,
2013-04-05 04:48:00,34.6,29.4,30.23,NNW,332,0.0,5.0,81,0.00,,---,0.00,VWS V14.01,2013-04-05 09:48:00,
2013-04-05 04:53:00,34.4,29.2,30.23,NW,308,2.0,5.0,81,0.00,,---,0.00,VWS V14.01,2013-04-05 09:53:00,
2013-04-05 04:58:00,34.3,29.1,30.22,NNE,22,0.0,5.0,81,0.00,,---,0.00,VWS V14.01,2013-04-05 09:58:00,
2013-04-05 05:00:00,34.3,29.1,30.22,NNE,33,0.0,5.0,81,0.00,,---,0.00,VWS V14.01,2013-04-05 10:00:00,
2013-04-05 05:03:00,34.1,28.9,30.22,North,353,0.0,2.0,81,0.00,,---,0.00,VWS V14.01,2013-04-05 10:03:00,
2013-04-05 05:08:00,33.9,29.0,30.22,NW,312,0.0,2.0,82,0.00,,---,0.00,VWS V14.01,2013-04-05 10:08:00,
2013-04-05 05:13:00,33.7,28.8,30.22,WNW,295,0.0,2.0,82,0.00,,---,0.00,VWS V14.01,2013-04-05 10:13:00,
2013-04-05 05:18:00,33.5,28.6,30.22,NNE,19,1.0,3.0,82,0.00,,---,0.00,VWS V14.01,2013-04-05 10:18:00,
2013-04-05 05:24:00,33.4,28.8,30.23,WNW,288,0.0,4.0,83,0.00,,---,0.00,VWS V14.01,2013-04-05 10:24:00,
2013-04-05 05:29:00,33.2,28.6,30.23,North,356,0.0,4.0,83,0.00,,---,0.00,VWS V14.01,2013-04-05 10:29:00,
2013-04-05 05:30:00,33.2,28.6,30.23,North,356,0.0,4.0,83,0.00,,---,0.00,VWS V14.01,2013-04-05 10:30:00,
2013-04-05 05:34:00,33.1,28.5,30.23,NW,305,0.0,1.0,83,0.00,,---,0.00,VWS V14.01,2013-04-05 10:34:00,
2013-04-05 05:39:00,33.0,28.4,30.24,NW,315,0.0,2.0,83,0.00,,---,0.00,VWS V14.01,2013-04-05 10:39:00,
2013-04-05 05:44:00,32.9,28.3,30.24,WNW,291,0.0,4.0,83,0.00,,---,0.00,VWS V14.01,2013-04-05 10:44:00,
2013-04-05 05:49:00,32.8,28.2,30.24,West,273,0.0,4.0,83,0.00,,---,0.00,VWS V14.01,2013-04-05 10:49:00,
2013-04-05 05:54:00,32.7,28.1,30.23,ENE,68,0.0,4.0,83,0.00,,---,0.00,VWS V14.01,2013-04-05 10:54:00,
2013-04-05 05:59:00,32.5,27.9,30.23,NNW,347,0.0,0.0,83,0.00,,---,0.00,VWS V14.01,2013-04-05 10:59:00,
2013-04-05 06:00:00,32.5,27.9,30.23,NNW,347,0.0,4.0,83,0.00,,---,0.00,VWS V14.01,2013-04-05 11:00:00,
2013-04-05 06:04:00,32.3,28.0,30.23,North,349,0.0,1.0,84,0.00,,---,0.00,VWS V14.01,2013-04-05 11:04:00,
2013-04-05 06:10:00,32.1,27.8,30.22,NNE,13,0.0,1.0,84,0.00,,---,0.00,VWS V14.01,2013-04-05 11:10:00,
2013-04-05 06:15:00,32.0,27.7,30.23,NE,38,0.0,2.0,84,0.00,,---,0.00,VWS V14.01,2013-04-05 11:15:00,
2013-04-05 06:20:00,31.8,27.5,30.23,NNW,329,0.0,2.0,84,0.00,,---,0.00,VWS V14.01,2013-04-05 11:20:00,
2013-04-05 06:25:00,31.7,27.7,30.23,NNW,329,0.0,2.0,85,0.00,,---,0.00,VWS V14.01,2013-04-05 11:25:00,
2013-04-05 06:30:00,31.5,27.5,30.24,North,4,0.0,0.0,85,0.00,,---,0.00,VWS V14.01,2013-04-05 11:30:00,
2013-04-05 06:35:00,31.5,27.5,30.24,NW,311,0.0,2.0,85,0.00,,---,0.00,VWS V14.01,2013-04-05 11:35:00,
2013-04-05 06:40:00,31.5,27.5,30.24,WNW,297,0.0,2.0,85,0.00,,---,0.00,VWS V14.01,2013-04-05 11:40:00,
2013-04-05 06:45:00,31.5,27.5,30.24,NW,320,0.0,2.0,85,0.00,,---,0.00,VWS V14.01,2013-04-05 11:45:00,
2013-04-05 06:50:00,31.4,27.4,30.24,NNW,345,0.0,2.0,85,0.00,,---,0.00,VWS V14.01,2013-04-05 11:50:00,
2013-04-05 06:55:00,31.3,27.3,30.24,North,1,1.0,2.0,85,0.00,,---,0.00,VWS V14.01,2013-04-05 11:55:00,
2013-04-05 07:00:00,31.2,27.2,30.24,NNE,15,0.0,1.0,85,0.00,,---,0.00,VWS V14.01,2013-04-05 12:00:00,
2013-04-05 07:05:00,31.2,27.5,30.24,NE,46,0.0,2.0,86,0.00,,---,0.00,VWS V14.01,2013-04-05 12:05:00,
2013-04-05 07:10:00,31.2,27.5,30.24,North,352,0.0,2.0,86,0.00,,---,0.00,VWS V14.01,2013-04-05 12:10:00,
2013-04-05 07:15:00,31.3,27.6,30.24,North,351,0.0,2.0,86,0.00,,---,0.00,VWS V14.01,2013-04-05 12:15:00,
2013-04-05 07:20:00,31.4,27.7,30.24,NNE,26,0.0,2.0,86,0.00,,---,0.00,VWS V14.01,2013-04-05 12:20:00,
2013-04-05 07:25:00,31.8,28.1,30.24,NNE,26,0.0,2.0,86,0.00,,---,0.00,VWS V14.01,2013-04-05 12:25:00,
2013-04-05 07:30:00,32.0,28.0,30.24,NNE,33,0.0,2.0,85,0.00,,---,0.00,VWS V14.01,2013-04-05 12:30:00,
2013-04-05 07:31:00,32.2,28.2,30.24,NNE,33,0.0,1.0,85,0.00,,---,0.00,VWS V14.01,2013-04-05 12:31:00,
2013-04-05 07:36:00,32.9,28.9,30.25,NE,34,0.0,1.0,85,0.00,,---,0.00,VWS V14.01,2013-04-05 12:36:00,
2013-04-05 07:41:00,33.3,29.0,30.24,NE,41,0.0,2.0,84,0.00,,---,0.00,VWS V14.01,2013-04-05 12:41:00,
2013-04-05 07:46:00,33.5,28.6,30.24,NE,42,2.0,6.0,82,0.00,,---,0.00,VWS V14.01,2013-04-05 12:46:00,
2013-04-05 07:51:00,33.7,28.8,30.24,NE,56,2.0,6.0,82,0.00,,---,0.00,VWS V14.01,2013-04-05 12:51:00,
2013-04-05 07:57:00,33.7,28.5,30.24,East,81,4.0,7.0,81,0.00,,---,0.00,VWS V14.01,2013-04-05 12:57:00,
2013-04-05 08:00:00,33.8,28.6,30.24,NE,50,1.0,7.0,81,0.00,,---,0.00,VWS V14.01,2013-04-05 13:00:00,
2013-04-05 08:02:00,34.2,29.0,30.24,NE,41,3.0,6.0,81,0.00,,---,0.00,VWS V14.01,2013-04-05 13:02:00,
2013-04-05 08:07:00,34.9,29.1,30.24,ENE,71,2.0,9.0,79,0.00,,---,0.00,VWS V14.01,2013-04-05 13:07:00,
2013-04-05 08:12:00,35.3,28.8,30.24,NNE,15,5.0,9.0,77,0.00,,---,0.00,VWS V14.01,2013-04-05 13:12:00,
2013-04-05 08:17:00,35.6,29.1,30.24,ENE,63,4.0,9.0,77,0.00,,---,0.00,VWS V14.01,2013-04-05 13:17:00,
2013-04-05 08:22:00,35.7,28.9,30.24,ENE,58,4.0,9.0,76,0.00,,---,0.00,VWS V14.01,2013-04-05 13:22:00,
2013-04-05 08:27:00,35.8,29.0,30.24,ENE,70,3.0,9.0,76,0.00,,---,0.00,VWS V14.01,2013-04-05 13:27:00,
2013-04-05 08:30:00,35.9,29.1,30.24,ENE,60,8.0,9.0,76,0.00,,---,0.00,VWS V14.01,2013-04-05 13:30:00,
2013-04-05 08:32:00,35.9,29.1,30.25,ESE,103,4.0,8.0,76,0.00,,---,0.00,VWS V14.01,2013-04-05 13:32:00,
2013-04-05 08:37:00,36.7,29.2,30.25,NE,36,3.0,10.0,74,0.00,,---,0.00,VWS V14.01,2013-04-05 13:37:00,
2013-04-05 08:43:00,37.1,29.3,30.25,NE,44,5.0,10.0,73,0.00,,---,0.00,VWS V14.01,2013-04-05 13:43:00,
2013-04-05 08:48:00,37.6,29.1,30.25,NNE,33,5.0,11.0,71,0.00,,---,0.00,VWS V14.01,2013-04-05 13:48:00,
2013-04-05 08:53:00,37.8,28.9,30.24,NE,53,5.0,11.0,70,0.00,,---,0.00,VWS V14.01,2013-04-05 13:53:00,
2013-04-05 08:58:00,38.4,29.1,30.24,NNE,16,4.0,11.0,69,0.00,,---,0.00,VWS V14.01,2013-04-05 13:58:00,
2013-04-05 09:00:00,38.5,29.2,30.24,East,96,3.0,11.0,69,0.00,,---,0.00,VWS V14.01,2013-04-05 14:00:00,
2013-04-05 09:03:00,38.5,28.9,30.23,East,100,3.0,10.0,68,0.00,,---,0.00,VWS V14.01,2013-04-05 14:03:00,
2013-04-05 09:08:00,38.8,28.8,30.24,NNE,22,3.0,10.0,67,0.00,,---,0.00,VWS V14.01,2013-04-05 14:08:00,
2013-04-05 09:13:00,39.3,28.9,30.24,ESE,123,5.0,10.0,66,0.00,,---,0.00,VWS V14.01,2013-04-05 14:13:00,
2013-04-05 09:18:00,39.7,28.5,30.24,East,94,3.0,11.0,64,0.00,,---,0.00,VWS V14.01,2013-04-05 14:18:00,
2013-04-05 09:23:00,40.3,29.1,30.24,ENE,77,4.0,11.0,64,0.00,,---,0.00,VWS V14.01,2013-04-05 14:23:00,
2013-04-05 09:28:00,40.5,28.9,30.24,East,98,3.0,11.0,63,0.00,,---,0.00,VWS V14.01,2013-04-05 14:28:00,
2013-04-05 09:30:00,40.5,28.9,30.24,ENE,65,4.0,11.0,63,0.00,,---,0.00,VWS V14.01,2013-04-05 14:30:00,
2013-04-05 09:34:00,40.7,29.1,30.24,ENE,72,5.0,11.0,63,0.00,,---,0.00,VWS V14.01,2013-04-05 14:34:00,
2013-04-05 09:39:00,40.7,29.1,30.23,SE,142,2.0,11.0,63,0.00,,---,0.00,VWS V14.01,2013-04-05 14:39:00,
2013-04-05 09:44:00,40.7,29.1,30.23,SSE,166,3.0,11.0,63,0.00,,---,0.00,VWS V14.01,2013-04-05 14:44:00,
2013-04-05 09:49:00,40.8,29.2,30.24,ENE,68,5.0,11.0,63,0.00,,---,0.00,VWS V14.01,2013-04-05 14:49:00,
2013-04-05 09:54:00,40.8,29.2,30.24,East,89,2.0,11.0,63,0.00,,---,0.00,VWS V14.01,2013-04-05 14:54:00,
2013-04-05 09:59:00,41.1,29.5,30.23,NE,34,2.0,11.0,63,0.00,,---,0.00,VWS V14.01,2013-04-05 14:59:00,
2013-04-05 10:00:00,41.1,29.5,30.23,NE,34,2.0,11.0,63,0.00,,---,0.00,VWS V14.01,2013-04-05 15:00:00,
2013-04-05 10:04:00,41.6,30.0,30.23,East,96,4.0,5.0,63,0.00,,---,0.00,VWS V14.01,2013-04-05 15:04:00,
2013-04-05 10:09:00,41.8,29.8,30.23,SE,128,3.0,9.0,62,0.00,,---,0.00,VWS V14.01,2013-04-05 15:09:00,
2013-04-05 10:14:00,42.3,29.8,30.23,ESE,120,6.0,9.0,61,0.00,,---,0.00,VWS V14.01,2013-04-05 15:14:00,
2013-04-05 10:20:00,42.3,29.4,30.22,ESE,110,5.0,11.0,60,0.00,,---,0.00,VWS V14.01,2013-04-05 15:20:00,
2013-04-05 10:25:00,42.9,30.4,30.23,ESE,103,3.0,11.0,61,0.00,,---,0.00,VWS V14.01,2013-04-05 15:25:00,
2013-04-05 10:30:00,44.1,30.7,30.23,SW,227,2.0,6.0,59,0.00,,---,0.00,VWS V14.01,2013-04-05 15:30:00,
2013-04-05 10:35:00,45.1,30.4,30.22,South,184,4.0,9.0,56,0.00,,---,0.00,VWS V14.01,2013-04-05 15:35:00,
2013-04-05 10:40:00,45.1,29.9,30.22,East,96,3.0,9.0,55,0.00,,---,0.00,VWS V14.01,2013-04-05 15:40:00,
2013-04-05 10:45:00,45.2,30.0,30.22,ENE,73,5.0,9.0,55,0.00,,---,0.00,VWS V14.01,2013-04-05 15:45:00,
2013-04-05 10:50:00,45.3,30.1,30.22,ESE,102,6.0,9.0,55,0.00,,---,0.00,VWS V14.01,2013-04-05 15:50:00,
2013-04-05 10:55:00,45.8,30.1,30.22,ENE,66,3.0,9.0,54,0.00,,---,0.00,VWS V14.01,2013-04-05 15:55:00,
2013-04-05 11:00:00,46.8,30.6,30.22,SSW,205,1.0,6.0,53,0.00,,---,0.00,VWS V14.01,2013-04-05 16:00:00,
2013-04-05 11:06:00,47.6,29.9,30.22,SSE,158,3.0,8.0,50,0.00,,---,0.00,VWS V14.01,2013-04-05 16:06:00,
2013-04-05 11:11:00,48.1,30.4,30.22,SSW,208,3.0,8.0,50,0.00,,---,0.00,VWS V14.01,2013-04-05 16:11:00,
2013-04-05 11:16:00,48.6,30.3,30.22,WSW,245,4.0,8.0,49,0.00,,---,0.00,VWS V14.01,2013-04-05 16:16:00,
2013-04-05 11:22:00,48.5,30.2,30.22,SE,126,4.0,8.0,49,0.00,,---,0.00,VWS V14.01,2013-04-05 16:22:00,
2013-04-05 11:27:00,49.1,29.8,30.22,ESE,118,6.0,11.0,47,0.00,,---,0.00,VWS V14.01,2013-04-05 16:27:00,
2013-04-05 11:30:00,49.0,29.1,30.22,East,79,4.0,11.0,46,0.00,,---,0.00,VWS V14.01,2013-04-05 16:30:00,
2013-04-05 11:32:00,49.5,31.1,30.23,ESE,120,5.0,8.0,49,0.00,,---,0.00,VWS V14.01,2013-04-05 16:32:00,
2013-04-05 11:37:00,49.8,30.4,30.22,SE,141,2.0,8.0,47,0.00,,---,0.00,VWS V14.01,2013-04-05 16:37:00,
2013-04-05 11:42:00,49.9,30.0,30.22,ESE,123,3.0,10.0,46,0.00,,---,0.00,VWS V14.01,2013-04-05 16:42:00,
2013-04-05 11:47:00,49.8,29.9,30.21,SE,128,4.0,11.0,46,0.00,,---,0.00,VWS V14.01,2013-04-05 16:47:00,
2013-04-05 11:52:00,50.6,30.6,30.20,SE,125,4.0,11.0,46,0.00,,---,0.00,VWS V14.01,2013-04-05 16:52:00,
2013-04-05 11:57:00,49.7,29.2,30.20,East,89,7.0,13.0,45,0.00,,---,0.00,VWS V14.01,2013-04-05 16:57:00,
2013-04-05 12:00:00,49.5,29.1,30.21,East,99,4.0,13.0,45,0.00,,---,0.00,VWS V14.01,2013-04-05 17:00:00,
2013-04-05 12:02:00,49.5,30.1,30.21,SW,232,4.0,6.0,47,0.00,,---,0.00,VWS V14.01,2013-04-05 17:02:00,
2013-04-05 12:07:00,50.3,29.8,30.21,ESE,122,9.0,11.0,45,0.00,,---,0.00,VWS V14.01,2013-04-05 17:07:00,
2013-04-05 12:13:00,50.3,29.2,30.20,East,87,4.0,11.0,44,0.00,,---,0.00,VWS V14.01,2013-04-05 17:13:00,
2013-04-05 12:18:00,50.5,28.9,30.20,ENE,77,3.0,11.0,43,0.00,,---,0.00,VWS V14.01,2013-04-05 17:18:00,
2013-04-05 12:23:00,50.8,29.1,30.19,ESE,103,3.0,11.0,43,0.00,,---,0.00,VWS V14.01,2013-04-05 17:23:00,
2013-04-05 12:28:00,52.0,30.8,30.19,ENE,74,7.0,11.0,44,0.00,,---,0.00,VWS V14.01,2013-04-05 17:28:00,
2013-04-05 12:30:00,52.2,31.0,30.19,SE,128,4.0,11.0,44,0.00,,---,0.00,VWS V14.01,2013-04-05 17:30:00,
2013-04-05 12:33:00,52.4,28.8,30.19,ENE,75,3.0,9.0,40,0.00,,---,0.00,VWS V14.01,2013-04-05 17:33:00,
2013-04-05 12:38:00,52.0,28.5,30.19,ESE,108,6.0,12.0,40,0.00,,---,0.00,VWS V14.01,2013-04-05 17:38:00,
2013-04-05 12:43:00,51.4,27.9,30.19,East,93,2.0,12.0,40,0.00,,---,0.00,VWS V14.01,2013-04-05 17:43:00,
2013-04-05 12:48:00,51.3,27.8,30.18,East,79,5.0,12.0,40,0.00,,---,0.00,VWS V14.01,2013-04-05 17:48:00,
2013-04-05 12:53:00,51.7,28.8,30.19,East,101,5.0,12.0,41,0.00,,---,0.00,VWS V14.01,2013-04-05 17:53:00,
2013-04-05 12:58:00,52.1,29.1,30.18,ESE,102,6.0,12.0,41,0.00,,---,0.00,VWS V14.01,2013-04-05 17:58:00,
2013-04-05 13:00:00,52.2,28.6,30.18,ENE,78,9.0,12.0,40,0.00,,---,0.00,VWS V14.01,2013-04-05 18:00:00,
2013-04-05 13:03:00,52.7,27.8,30.18,ESE,117,2.0,9.0,38,0.00,,---,0.00,VWS V14.01,2013-04-05 18:03:00,
2013-04-05 13:08:00,52.6,29.0,30.18,SE,125,1.0,9.0,40,0.00,,---,0.00,VWS V14.01,2013-04-05 18:08:00,
2013-04-05 13:13:00,52.9,28.0,30.17,East,82,5.0,9.0,38,0.00,,---,0.00,VWS V14.01,2013-04-05 18:13:00,
2013-04-05 13:19:00,52.8,28.5,30.17,SE,146,8.0,10.0,39,0.00,,---,0.00,VWS V14.01,2013-04-05 18:19:00,
2013-04-05 13:24:00,52.8,27.3,30.16,SE,124,9.0,10.0,37,0.00,,---,0.00,VWS V14.01,2013-04-05 18:24:00,
2013-04-05 13:29:00,52.7,27.8,30.16,SE,132,5.0,10.0,38,0.00,,---,0.00,VWS V14.01,2013-04-05 18:29:00,
2013-04-05 13:30:00,52.7,27.8,30.16,SSE,158,4.0,10.0,38,0.00,,---,0.00,VWS V14.01,2013-04-05 18:30:00,
2013-04-05 13:34:00,53.1,28.2,30.16,East,95,7.0,12.0,38,0.00,,---,0.00,VWS V14.01,2013-04-05 18:34:00,
2013-04-05 13:39:00,53.5,29.2,30.15,ESE,113,3.0,12.0,39,0.00,,---,0.00,VWS V14.01,2013-04-05 18:39:00,
2013-04-05 13:44:00,54.3,29.2,30.15,SE,139,7.0,12.0,38,0.00,,---,0.00,VWS V14.01,2013-04-05 18:44:00,
2013-04-05 13:49:00,54.3,28.6,30.15,East,90,6.0,12.0,37,0.00,,---,0.00,VWS V14.01,2013-04-05 18:49:00,
2013-04-05 14:07:00,54.6,28.2,30.15,ESE,106,6.0,12.0,36,0.00,,---,0.00,VWS V14.01,2013-04-05 19:07:00,
2013-04-05 14:12:00,55.2,28.7,30.13,SE,126,8.0,13.0,36,0.00,,---,0.00,VWS V14.01,2013-04-05 19:12:00,
2013-04-05 14:17:00,55.4,28.2,30.13,SE,129,9.0,13.0,35,0.00,,---,0.00,VWS V14.01,2013-04-05 19:17:00,
2013-04-05 14:22:00,55.7,27.8,30.12,East,79,5.0,13.0,34,0.00,,---,0.00,VWS V14.01,2013-04-05 19:22:00,
2013-04-05 14:27:00,55.5,28.3,30.11,ESE,103,8.0,17.0,35,0.00,,---,0.00,VWS V14.01,2013-04-05 19:27:00,
2013-04-05 14:30:00,55.5,28.3,30.11,ENE,78,5.0,17.0,35,0.00,,---,0.00,VWS V14.01,2013-04-05 19:30:00,
2013-04-05 14:32:00,55.4,28.2,30.11,East,79,7.0,12.0,35,0.00,,---,0.00,VWS V14.01,2013-04-05 19:32:00,
2013-04-05 14:37:00,55.7,28.5,30.11,ESE,122,8.0,12.0,35,0.00,,---,0.00,VWS V14.01,2013-04-05 19:37:00,
2013-04-05 14:43:00,56.2,28.9,30.10,East,82,7.0,14.0,35,0.00,,---,0.00,VWS V14.01,2013-04-05 19:43:00,
2013-04-05 14:48:00,56.2,29.6,30.10,SSW,212,9.0,14.0,36,0.00,,---,0.00,VWS V14.01,2013-04-05 19:48:00,
2013-04-05 14:53:00,56.4,28.4,30.10,ESE,110,10.0,14.0,34,0.00,,---,0.00,VWS V14.01,2013-04-05 19:53:00,
2013-04-05 14:58:00,56.4,29.1,30.10,WSW,248,3.0,15.0,35,0.00,,---,0.00,VWS V14.01,2013-04-05 19:58:00,
2013-04-05 15:00:00,56.5,29.2,30.10,SSE,154,7.0,15.0,35,0.00,,---,0.00,VWS V14.01,2013-04-05 20:00:00,
2013-04-05 15:03:00,56.7,28.7,30.09,South,188,6.0,12.0,34,0.00,,---,0.00,VWS V14.01,2013-04-05 20:03:00,
2013-04-05 15:08:00,57.1,29.7,30.10,South,186,2.0,12.0,35,0.00,,---,0.00,VWS V14.01,2013-04-05 20:08:00,
2013-04-05 15:13:00,57.8,30.4,30.09,SE,137,3.0,12.0,35,0.00,,---,0.00,VWS V14.01,2013-04-05 20:13:00,
2013-04-05 15:18:00,58.2,30.0,30.09,ESE,109,5.0,12.0,34,0.00,,---,0.00,VWS V14.01,2013-04-05 20:18:00,
2013-04-05 15:24:00,57.8,30.4,30.09,ESE,112,3.0,12.0,35,0.00,,---,0.00,VWS V14.01,2013-04-05 20:24:00,
2013-04-05 15:29:00,57.7,30.3,30.08,East,86,5.0,12.0,35,0.00,,---,0.00,VWS V14.01,2013-04-05 20:29:00,
2013-04-05 15:30:00,57.7,30.3,30.08,East,86,5.0,12.0,35,0.00,,---,0.00,VWS V14.01,2013-04-05 20:30:00,
2013-04-05 15:34:00,57.8,29.6,30.08,SE,132,7.0,15.0,34,0.00,,---,0.00,VWS V14.01,2013-04-05 20:34:00,
2013-04-05 15:39:00,57.9,29.7,30.07,SE,139,3.0,15.0,34,0.00,,---,0.00,VWS V14.01,2013-04-05 20:39:00,
2013-04-05 15:44:00,57.9,29.7,30.07,SSE,166,5.0,15.0,34,0.00,,---,0.00,VWS V14.01,2013-04-05 20:44:00,
2013-04-05 15:49:00,58.4,30.9,30.06,SSE,162,8.0,15.0,35,0.00,,---,0.00,VWS V14.01,2013-04-05 20:49:00,
2013-04-05 15:55:00,59.0,30.7,30.06,SSW,195,5.0,15.0,34,0.00,,---,0.00,VWS V14.01,2013-04-05 20:55:00,
2013-04-05 16:00:00,59.4,31.0,30.06,SE,125,8.0,9.0,34,0.00,,---,0.00,VWS V14.01,2013-04-05 21:00:00,
2013-04-05 16:05:00,59.6,29.7,30.05,ESE,105,6.0,10.0,32,0.00,,---,0.00,VWS V14.01,2013-04-05 21:05:00,
2013-04-05 16:10:00,59.9,30.0,30.05,SE,128,8.0,15.0,32,0.00,,---,0.00,VWS V14.01,2013-04-05 21:10:00,
2013-04-05 16:15:00,60.0,30.8,30.04,East,94,8.0,15.0,33,0.00,,---,0.00,VWS V14.01,2013-04-05 21:15:00,
2013-04-05 16:20:00,59.7,30.6,30.04,SW,215,4.0,15.0,33,0.00,,---,0.00,VWS V14.01,2013-04-05 21:20:00,
2013-04-05 16:25:00,59.9,30.8,30.04,SE,137,2.0,15.0,33,0.00,,---,0.00,VWS V14.01,2013-04-05 21:25:00,
2013-04-05 16:30:00,60.5,30.5,30.04,SE,138,2.0,12.0,32,0.00,,---,0.00,VWS V14.01,2013-04-05 21:30:00,
2013-04-05 16:35:00,60.4,30.4,30.04,SE,141,5.0,13.0,32,0.00,,---,0.00,VWS V14.01,2013-04-05 21:35:00,
2013-04-05 16:40:00,60.2,31.0,30.04,East,80,3.0,13.0,33,0.00,,---,0.00,VWS V14.01,2013-04-05 21:40:00,
2013-04-05 16:45:00,60.1,30.9,30.03,SSW,194,4.0,13.0,33,0.00,,---,0.00,VWS V14.01,2013-04-05 21:45:00,
2013-04-05 16:50:00,60.3,31.1,30.03,SSE,154,11.0,13.0,33,0.00,,---,0.00,VWS V14.01,2013-04-05 21:50:00,
2013-04-05 16:55:00,60.1,30.9,30.02,SSW,204,5.0,13.0,33,0.00,,---,0.00,VWS V14.01,2013-04-05 21:55:00,
2013-04-05 17:00:00,60.0,30.8,30.02,SE,143,5.0,13.0,33,0.00,,---,0.00,VWS V14.01,2013-04-05 22:00:00,
2013-04-05 17:01:00,59.9,31.5,30.03,SE,125,10.0,15.0,34,0.00,,---,0.00,VWS V14.01,2013-04-05 22:01:00,
2013-04-05 17:06:00,59.7,31.3,30.02,ESE,120,5.0,15.0,34,0.00,,---,0.00,VWS V14.01,2013-04-05 22:06:00,
2013-04-05 17:11:00,59.6,31.2,30.02,ENE,69,11.0,15.0,34,0.00,,---,0.00,VWS V14.01,2013-04-05 22:11:00,
2013-04-05 17:16:00,59.5,31.9,30.01,ESE,103,4.0,15.0,35,0.00,,---,0.00,VWS V14.01,2013-04-05 22:16:00,
2013-04-05 17:21:00,59.4,31.8,30.01,ESE,120,5.0,15.0,35,0.00,,---,0.00,VWS V14.01,2013-04-05 22:21:00,
2013-04-05 17:27:00,59.4,31.8,30.01,ESE,120,8.0,15.0,35,0.00,,---,0.00,VWS V14.01,2013-04-05 22:27:00,
2013-04-05 17:30:00,59.5,31.9,30.00,ESE,120,7.0,15.0,35,0.00,,---,0.00,VWS V14.01,2013-04-05 22:30:00,
2013-04-05 17:32:00,59.3,31.7,30.00,SSE,158,14.0,14.0,35,0.00,,---,0.00,VWS V14.01,2013-04-05 22:32:00,
2013-04-05 17:37:00,59.4,32.5,30.00,East,98,11.0,14.0,36,0.00,,---,0.00,VWS V14.01,2013-04-05 22:37:00,
2013-04-05 17:42:00,59.5,32.5,30.00,East,94,8.0,14.0,36,0.00,,---,0.00,VWS V14.01,2013-04-05 22:42:00,
2013-04-05 17:47:00,59.7,32.7,29.99,SE,139,4.0,14.0,36,0.00,,---,0.00,VWS V14.01,2013-04-05 22:47:00,
2013-04-05 17:52:00,60.0,32.3,29.99,SE,131,6.0,14.0,35,0.00,,---,0.00,VWS V14.01,2013-04-05 22:52:00,
2013-04-05 17:57:00,60.1,33.1,29.98,ESE,122,10.0,14.0,36,0.00,,---,0.00,VWS V14.01,2013-04-05 22:57:00,
2013-04-05 18:00:00,60.1,33.1,29.98,ESE,117,2.0,14.0,36,0.00,,---,0.00,VWS V14.01,2013-04-05 23:00:00,
2013-04-05 18:02:00,60.1,33.1,29.98,SE,146,6.0,13.0,36,0.00,,---,0.00,VWS V14.01,2013-04-05 23:02:00,
2013-04-05 18:07:00,60.1,33.1,29.98,ESE,120,5.0,13.0,36,0.00,,---,0.00,VWS V14.01,2013-04-05 23:07:00,
2013-04-05 18:12:00,60.0,33.0,29.98,SE,129,2.0,13.0,36,0.00,,---,0.00,VWS V14.01,2013-04-05 23:12:00,
2013-04-05 18:17:00,59.8,33.5,29.98,SSW,200,4.0,14.0,37,0.00,,---,0.00,VWS V14.01,2013-04-05 23:17:00,
2013-04-05 18:23:00,59.7,33.4,29.98,ESE,117,3.0,14.0,37,0.00,,---,0.00,VWS V14.01,2013-04-05 23:23:00,
2013-04-05 18:28:00,59.7,33.4,29.98,East,79,4.0,14.0,37,0.00,,---,0.00,VWS V14.01,2013-04-05 23:28:00,
2013-04-05 18:30:00,59.7,34.1,29.98,ESE,123,3.0,14.0,38,0.00,,---,0.00,VWS V14.01,2013-04-05 23:30:00,
2013-04-05 18:33:00,59.7,33.4,29.98,SSE,148,8.0,13.0,37,0.00,,---,0.00,VWS V14.01,2013-04-05 23:33:00,
2013-04-05 18:38:00,59.6,33.3,29.98,SE,129,3.0,13.0,37,0.00,,---,0.00,VWS V14.01,2013-04-05 23:38:00,
2013-04-05 18:43:00,59.5,33.2,29.98,East,98,7.0,13.0,37,0.00,,---,0.00,VWS V14.01,2013-04-05 23:43:00,
2013-04-05 18:48:00,59.4,33.8,29.98,ESE,106,6.0,13.0,38,0.00,,---,0.00,VWS V14.01,2013-04-05 23:48:00,
2013-04-05 18:53:00,59.3,33.7,29.97,ESE,113,4.0,16.0,38,0.00,,---,0.00,VWS V14.01,2013-04-05 23:53:00,
2013-04-05 18:58:00,59.2,33.6,29.97,East,98,4.0,16.0,38,0.00,,---,0.00,VWS V14.01,2013-04-05 23:58:00,
2013-04-05 19:00:00,59.1,33.5,29.97,ESE,105,5.0,16.0,38,0.00,,---,0.00,VWS V14.01,2013-04-06 00:00:00,
2013-04-05 19:03:00,59.0,33.5,29.97,South,174,6.0,8.0,38,0.00,,---,0.00,VWS V14.01,2013-04-06 00:03:00,
2013-04-05 19:08:00,59.0,33.5,29.96,ESE,117,11.0,14.0,38,0.00,,---,0.00,VWS V14.01,2013-04-06 00:08:00,
2013-04-05 19:14:00,58.9,33.4,29.96,SE,129,7.0,14.0,38,0.00,,---,0.00,VWS V14.01,2013-04-06 00:14:00,
2013-04-05 19:19:00,58.8,33.3,29.96,East,86,4.0,14.0,38,0.00,,---,0.00,VWS V14.01,2013-04-06 00:19:00,
2013-04-05 19:24:00,58.8,33.3,29.96,East,90,12.0,14.0,38,0.00,,---,0.00,VWS V14.01,2013-04-06 00:24:00,
2013-04-05 19:30:00,58.7,33.8,29.96,ENE,78,7.0,10.0,39,0.00,,---,0.00,VWS V14.01,2013-04-06 00:30:00,
2013-04-05 19:35:00,58.6,33.7,29.95,ENE,77,10.0,10.0,39,0.00,,---,0.00,VWS V14.01,2013-04-06 00:35:00,
2013-04-05 19:40:00,58.5,33.7,29.95,ESE,107,4.0,14.0,39,0.00,,---,0.00,VWS V14.01,2013-04-06 00:40:00,
2013-04-05 19:45:00,58.4,33.6,29.96,SSE,162,3.0,14.0,39,0.00,,---,0.00,VWS V14.01,2013-04-06 00:45:00,
2013-04-05 19:50:00,58.3,34.1,29.96,ESE,117,8.0,14.0,40,0.00,,---,0.00,VWS V14.01,2013-04-06 00:50:00,
2013-04-05 19:55:00,58.2,34.0,29.95,East,82,6.0,14.0,40,0.00,,---,0.00,VWS V14.01,2013-04-06 00:55:00,
2013-04-05 20:00:00,58.1,33.9,29.95,SE,126,5.0,5.0,40,0.00,,---,0.00,VWS V14.01,2013-04-06 01:00:00,
2013-04-05 20:05:00,58.0,33.8,29.95,SSE,162,4.0,10.0,40,0.00,,---,0.00,VWS V14.01,2013-04-06 01:05:00,
2013-04-05 20:10:00,57.8,33.7,29.95,ESE,109,10.0,10.0,40,0.00,,---,0.00,VWS V14.01,2013-04-06 01:10:00,
2013-04-05 20:15:00,57.7,34.2,29.95,East,87,8.0,14.0,41,0.00,,---,0.00,VWS V14.01,2013-04-06 01:15:00,
2013-04-05 20:20:00,57.6,34.1,29.95,East,98,5.0,14.0,41,0.00,,---,0.00,VWS V14.01,2013-04-06 01:20:00,
2013-04-05 20:25:00,57.3,34.4,29.95,East,101,6.0,14.0,42,0.00,,---,0.00,VWS V14.01,2013-04-06 01:25:00,
2013-04-05 20:30:00,57.2,34.3,29.94,SSE,159,3.0,9.0,42,0.00,,---,0.00,VWS V14.01,2013-04-06 01:30:00,
2013-04-05 20:35:00,57.0,34.8,29.94,East,93,3.0,10.0,43,0.00,,---,0.00,VWS V14.01,2013-04-06 01:35:00,
2013-04-05 20:41:00,57.0,34.8,29.94,ESE,110,5.0,10.0,43,0.00,,---,0.00,VWS V14.01,2013-04-06 01:41:00,
2013-04-05 20:46:00,56.9,34.7,29.94,SE,125,4.0,15.0,43,0.00,,---,0.00,VWS V14.01,2013-04-06 01:46:00,
2013-04-05 20:51:00,56.9,35.2,29.94,ENE,76,4.0,15.0,44,0.00,,---,0.00,VWS V14.01,2013-04-06 01:51:00,
2013-04-05 20:56:00,56.9,35.2,29.94,East,89,8.0,15.0,44,0.00,,---,0.00,VWS V14.01,2013-04-06 01:56:00,
2013-04-05 21:00:00,56.8,35.1,29.93,ESE,114,7.0,15.0,44,0.00,,---,0.00,VWS V14.01,2013-04-06 02:00:00,
2013-04-05 21:02:00,56.8,35.1,29.93,East,88,6.0,13.0,44,0.00,,---,0.00,VWS V14.01,2013-04-06 02:02:00,
2013-04-05 21:07:00,56.7,35.0,29.93,SE,146,6.0,13.0,44,0.00,,---,0.00,VWS V14.01,2013-04-06 02:07:00,
2013-04-05 21:12:00,56.5,35.4,29.93,ESE,103,6.0,14.0,45,0.00,,---,0.00,VWS V14.01,2013-04-06 02:12:00,
2013-04-05 21:17:00,56.4,35.3,29.94,SSE,153,3.0,15.0,45,0.00,,---,0.00,VWS V14.01,2013-04-06 02:17:00,
2013-04-05 21:22:00,56.3,35.2,29.94,East,94,7.0,15.0,45,0.00,,---,0.00,VWS V14.01,2013-04-06 02:22:00,
2013-04-05 21:27:00,56.2,35.2,29.93,East,92,6.0,15.0,45,0.00,,---,0.00,VWS V14.01,2013-04-06 02:27:00,
2013-04-05 21:30:00,56.2,35.2,29.93,ESE,106,8.0,15.0,45,0.00,,---,0.00,VWS V14.01,2013-04-06 02:30:00,
2013-04-05 21:32:00,56.2,35.2,29.93,ENE,76,7.0,14.0,45,0.00,,---,0.00,VWS V14.01,2013-04-06 02:32:00,
2013-04-05 21:37:00,56.1,35.6,29.93,ESE,113,6.0,14.0,46,0.00,,---,0.00,VWS V14.01,2013-04-06 02:37:00,
2013-04-05 21:42:00,55.9,35.4,29.93,SE,131,8.0,14.0,46,0.00,,---,0.00,VWS V14.01,2013-04-06 02:42:00,
2013-04-05 21:47:00,55.8,35.3,29.93,SE,129,9.0,14.0,46,0.00,,---,0.00,VWS V14.01,2013-04-06 02:47:00,
2013-04-05 21:52:00,55.7,35.3,29.93,East,101,4.0,14.0,46,0.00,,---,0.00,VWS V14.01,2013-04-06 02:52:00,
2013-04-05 21:57:00,55.5,35.6,29.93,East,89,4.0,14.0,47,0.00,,---,0.00,VWS V14.01,2013-04-06 02:57:00,
2013-04-05 22:00:00,55.5,35.6,29.93,ESE,113,5.0,14.0,47,0.00,,---,0.00,VWS V14.01,2013-04-06 03:00:00,
2013-04-05 22:03:00,55.6,35.7,29.93,SE,141,5.0,14.0,47,0.00,,---,0.00,VWS V14.01,2013-04-06 03:03:00,
2013-04-05 22:08:00,55.5,35.6,29.93,SE,127,4.0,14.0,47,0.00,,---,0.00,VWS V14.01,2013-04-06 03:08:00,
2013-04-05 22:13:00,55.4,35.5,29.93,ENE,72,5.0,14.0,47,0.00,,---,0.00,VWS V14.01,2013-04-06 03:13:00,
2013-04-05 22:18:00,55.5,35.6,29.93,ESE,103,8.0,16.0,47,0.00,,---,0.00,VWS V14.01,2013-04-06 03:18:00,
2013-04-05 22:23:00,55.5,35.6,29.93,ENE,65,4.0,16.0,47,0.00,,---,0.00,VWS V14.01,2013-04-06 03:23:00,
2013-04-05 22:28:00,55.5,35.6,29.92,SSE,153,5.0,16.0,47,0.00,,---,0.00,VWS V14.01,2013-04-06 03:28:00,
2013-04-05 22:30:00,55.5,35.6,29.92,SE,128,3.0,16.0,47,0.00,,---,0.00,VWS V14.01,2013-04-06 03:30:00,
2013-04-05 22:33:00,55.5,35.6,29.92,East,86,5.0,9.0,47,0.00,,---,0.00,VWS V14.01,2013-04-06 03:33:00,
2013-04-05 22:38:00,55.4,36.1,29.91,ESE,105,5.0,10.0,48,0.00,,---,0.00,VWS V14.01,2013-04-06 03:38:00,
2013-04-05 22:43:00,55.3,36.0,29.91,ESE,106,3.0,16.0,48,0.00,,---,0.00,VWS V14.01,2013-04-06 03:43:00,
2013-04-05 22:48:00,55.2,35.9,29.91,SE,141,4.0,16.0,48,0.00,,---,0.00,VWS V14.01,2013-04-06 03:48:00,
2013-04-05 22:53:00,55.1,35.8,29.91,ESE,117,6.0,16.0,48,0.00,,---,0.00,VWS V14.01,2013-04-06 03:53:00,
2013-04-05 22:58:00,55.0,35.7,29.91,ESE,117,11.0,16.0,48,0.00,,---,0.00,VWS V14.01,2013-04-06 03:58:00,
2013-04-05 23:00:00,55.0,35.7,29.90,ENE,78,6.0,6.0,48,0.00,,---,0.00,VWS V14.01,2013-04-06 04:00:00,
2013-04-05 23:01:00,55.0,35.7,29.90,SSE,165,4.0,7.0,48,0.00,,---,0.00,VWS V14.01,2013-04-06 04:01:00,
2013-04-05 23:02:00,54.9,35.6,29.90,ESE,105,6.0,8.0,48,0.00,,---,0.00,VWS V14.01,2013-04-06 04:02:00,
2013-04-05 23:07:00,54.9,35.6,29.90,SE,136,3.0,15.0,48,0.00,,---,0.00,VWS V14.01,2013-04-06 04:07:00,
2013-04-05 23:12:00,54.7,35.9,29.90,East,101,2.0,16.0,49,0.00,,---,0.00,VWS V14.01,2013-04-06 04:12:00,
2013-04-05 23:17:00,54.5,35.8,29.90,SE,127,2.0,16.0,49,0.00,,---,0.00,VWS V14.01,2013-04-06 04:17:00,
2013-04-05 23:22:00,54.4,36.2,29.90,SSE,147,6.0,16.0,50,0.00,,---,0.00,VWS V14.01,2013-04-06 04:22:00,
2013-04-05 23:27:00,54.5,35.8,29.90,SSE,158,2.0,16.0,49,0.00,,---,0.00,VWS V14.01,2013-04-06 04:27:00,
2013-04-05 23:30:00,54.6,35.8,29.89,SSE,159,11.0,16.0,49,0.00,,---,0.00,VWS V14.01,2013-04-06 04:30:00,
2013-04-05 23:32:00,54.5,36.3,29.89,ESE,109,12.0,14.0,50,0.00,,---,0.00,VWS V14.01,2013-04-06 04:32:00,
2013-04-05 23:38:00,54.5,36.3,29.89,SW,231,3.0,14.0,50,0.00,,---,0.00,VWS V14.01,2013-04-06 04:38:00,
2013-04-05 23:43:00,54.3,36.1,29.89,SE,143,4.0,14.0,50,0.00,,---,0.00,VWS V14.01,2013-04-06 04:43:00,
2013-04-05 23:48:00,54.3,36.1,29.88,SE,141,3.0,14.0,50,0.00,,---,0.00,VWS V14.01,2013-04-06 04:48:00,
2013-04-05 23:53:00,54.2,36.0,29.88,ESE,110,5.0,17.0,50,0.00,,---,0.00,VWS V14.01,2013-04-06 04:53:00,
2013-04-05 23:58:00,54.2,36.5,29.89,ESE,106,6.0,17.0,51,0.00,,---,0.00,VWS V14.01,2013-04-06 04:58:00,